Time;durP1;ratioP1;P1;durP2;ratioP2;P2;SDS_P1;SDS_P2;PMS_P1;PMS_P2;Temp;Humidity;BMP_temperature;BMP_pressure;BME280_temperature;BME280_humidity;BME280_pressure;Samples;Min_cycle;Max_cycle;Signal;HPM_P1;HPM_P2
2021/12/07 00:01:32;;;;;;;5.20;4.73;;;3.60;99.90;;;;;;5114972;28;20477;-57
2021/12/07 00:03:59;;;;;;;5.43;4.70;;;3.70;99.90;;;;;;5115288;28;20545;-57
2021/12/07 00:06:26;;;;;;;4.87;4.50;;;3.70;99.90;;;;;;5114469;28;20478;-57
2021/12/07 00:08:56;;;;;;;5.17;4.07;;;3.80;99.90;;;;;;5114778;28;20956;-57
2021/12/07 00:11:25;;;;;;;4.10;3.70;;;3.80;99.90;;;;;;5114887;28;20458;-57
2021/12/07 00:13:52;;;;;;;6.27;5.17;;;3.90;99.90;;;;;;5114859;28;20452;-58
2021/12/07 00:16:21;;;;;;;4.70;4.30;;;3.90;99.90;;;;;;5114545;28;20474;-57
2021/12/07 00:18:48;;;;;;;5.37;4.40;;;3.90;99.90;;;;;;5114387;28;21075;-58
2021/12/07 00:21:17;;;;;;;4.03;3.70;;;3.90;99.90;;;;;;5114618;28;20463;-58
2021/12/07 00:23:46;;;;;;;4.90;4.50;;;3.80;99.90;;;;;;5115239;28;20450;-58
2021/12/07 00:26:15;;;;;;;4.53;4.13;;;4.00;99.90;;;;;;5114367;28;20446;-57
2021/12/07 00:28:43;;;;;;;5.63;5.20;;;3.90;99.90;;;;;;5114577;28;20466;-57
2021/12/07 00:31:15;;;;;;;4.80;4.40;;;3.80;99.90;;;;;;5114404;28;20466;-57
2021/12/07 00:33:50;;;;;;;4.60;4.30;;;3.90;99.90;;;;;;5114043;28;20507;-58
2021/12/07 00:36:17;;;;;;;4.37;4.00;;;4.00;99.90;;;;;;5114389;28;20419;-57
2021/12/07 00:38:45;;;;;;;4.60;4.20;;;3.80;99.90;;;;;;5114008;28;20855;-58
2021/12/07 00:41:13;;;;;;;4.50;4.00;;;3.90;99.90;;;;;;5114048;28;21035;-57
2021/12/07 00:43:40;;;;;;;5.40;4.90;;;3.80;99.90;;;;;;5115012;28;20482;-56
2021/12/07 00:46:08;;;;;;;4.20;3.90;;;3.70;99.90;;;;;;5114016;28;20449;-57
2021/12/07 00:48:36;;;;;;;4.40;4.07;;;3.70;99.90;;;;;;5113419;28;20937;-57
2021/12/07 00:51:05;;;;;;;5.00;3.80;;;3.60;99.90;;;;;;5114637;27;20470;-57
2021/12/07 00:53:32;;;;;;;4.63;4.07;;;3.80;99.90;;;;;;5114209;28;20450;-57
2021/12/07 00:56:03;;;;;;;4.13;3.83;;;3.60;99.90;;;;;;5114885;28;20443;-57
2021/12/07 00:58:31;;;;;;;4.90;4.40;;;3.50;99.90;;;;;;5113756;28;20902;-57
2021/12/07 01:01:00;;;;;;;5.43;4.50;;;3.30;99.90;;;;;;5114203;28;20467;-57
2021/12/07 01:03:29;;;;;;;5.40;4.90;;;3.30;99.90;;;;;;5114003;28;20454;-57
2021/12/07 01:06:06;;;;;;;4.33;3.93;;;3.20;99.90;;;;;;5113676;28;20879;-58
2021/12/07 01:25:35;;;;;;;4.23;3.93;;;3.30;99.90;;;;;;5113923;28;20426;-57
2021/12/07 01:28:09;;;;;;;4.70;3.80;;;3.20;99.90;;;;;;5113814;28;20418;-57
2021/12/07 01:30:42;;;;;;;6.60;5.50;;;3.20;99.90;;;;;;5113686;28;20549;-57
2021/12/07 01:33:26;;;;;;;4.77;3.90;;;3.20;99.90;;;;;;5113387;28;20518;-58
2021/12/07 01:36:10;;;;;;;5.00;4.60;;;3.30;99.90;;;;;;5113761;28;20503;-57
2021/12/07 01:41:42;;;;;;;5.10;4.50;;;3.40;99.90;;;;;;5113054;28;20495;-57
2021/12/07 01:44:40;;;;;;;6.90;4.17;;;3.50;99.90;;;;;;5113477;28;20795;-57
2021/12/07 01:53:02;;;;;;;4.27;3.83;;;3.50;99.90;;;;;;5076358;28;20544;-56
2021/12/07 02:01:00;;;;;;;3.60;3.30;;;3.70;99.90;;;;;;5110905;28;20442;-57
2021/12/07 02:03:28;;;;;;;3.70;3.40;;;3.70;99.90;;;;;;5110828;28;20455;-57
2021/12/07 02:05:57;;;;;;;15.07;3.87;;;3.50;99.90;;;;;;5111080;28;20538;-57
2021/12/07 02:08:24;;;;;;;4.50;4.10;;;3.60;99.90;;;;;;5110619;28;20474;-56
2021/12/07 02:10:56;;;;;;;4.40;3.43;;;3.70;99.90;;;;;;5110546;28;20957;-56
2021/12/07 02:14:05;;;;;;;5.10;3.70;;;3.70;99.90;;;;;;5110549;28;20945;-56
2021/12/07 02:16:13;;;;;;;4.07;3.67;;;3.60;99.90;;;;;;5110342;28;20439;-58
2021/12/07 02:18:40;;;;;;;3.30;3.10;;;3.60;99.90;;;;;;5110443;28;20439;-58
2021/12/07 02:21:17;;;;;;;3.63;3.33;;;3.60;99.90;;;;;;5110460;28;20443;-58
2021/12/07 02:23:45;;;;;;;3.87;3.57;;;3.70;99.90;;;;;;5110330;28;20831;-58
2021/12/07 02:26:12;;;;;;;3.90;3.60;;;3.70;99.90;;;;;;5110343;28;21039;-58
2021/12/07 02:28:40;;;;;;;5.40;3.60;;;3.60;99.90;;;;;;5110498;28;20561;-58
2021/12/07 02:31:08;;;;;;;6.37;4.37;;;3.60;99.90;;;;;;5110124;28;20462;-58
2021/12/07 02:33:36;;;;;;;3.80;3.40;;;3.80;99.90;;;;;;5110448;28;20489;-58
2021/12/07 02:36:05;;;;;;;3.90;3.60;;;3.80;99.90;;;;;;5110062;28;21000;-57
2021/12/07 02:38:34;;;;;;;4.73;3.80;;;3.70;99.90;;;;;;5110355;28;20861;-56
2021/12/07 02:41:01;;;;;;;4.03;3.63;;;3.70;99.90;;;;;;5109937;28;20575;-57
2021/12/07 02:43:28;;;;;;;3.97;3.67;;;3.80;99.90;;;;;;5110262;28;20431;-56
2021/12/07 02:45:55;;;;;;;3.70;3.40;;;3.90;99.90;;;;;;5109880;28;20959;-56
2021/12/07 02:48:23;;;;;;;3.47;2.80;;;4.00;99.90;;;;;;5109712;28;20493;-56
2021/12/07 02:50:51;;;;;;;3.30;3.00;;;4.10;99.90;;;;;;5110767;28;20512;-57
2021/12/07 02:53:21;;;;;;;3.33;3.10;;;4.10;99.90;;;;;;5110056;28;20446;-56
2021/12/07 02:55:51;;;;;;;3.43;3.13;;;4.20;99.90;;;;;;5110108;28;20427;-57
2021/12/07 02:58:19;;;;;;;3.87;3.47;;;4.10;99.90;;;;;;5109978;28;20823;-56
2021/12/07 03:00:53;;;;;;;3.40;3.13;;;4.20;99.90;;;;;;5099739;28;20826;-56
2021/12/07 03:03:20;;;;;;;2.40;2.20;;;4.00;99.90;;;;;;5096104;28;20446;-57
2021/12/07 03:05:56;;;;;;;2.83;2.53;;;3.90;99.90;;;;;;5096038;28;20957;-56
2021/12/07 03:09:06;;;;;;;3.13;2.90;;;3.80;99.90;;;;;;5096288;28;20554;-58
2021/12/07 03:28:07;;;;;;;2.90;2.70;;;3.80;99.90;;;;;;5095799;28;20458;-56
2021/12/07 03:30:35;;;;;;;2.87;2.53;;;3.80;99.90;;;;;;5095437;28;20476;-59
2021/12/07 03:33:03;;;;;;;3.13;2.93;;;3.90;99.90;;;;;;5095477;28;20443;-57
2021/12/07 03:35:31;;;;;;;3.57;2.50;;;4.00;99.90;;;;;;5095467;28;20447;-57
2021/12/07 03:38:00;;;;;;;2.97;2.67;;;4.00;99.90;;;;;;5096122;28;20460;-57
2021/12/07 03:40:27;;;;;;;3.10;2.80;;;4.10;99.90;;;;;;5095571;28;20529;-56
2021/12/07 03:42:55;;;;;;;3.87;2.60;;;4.00;99.90;;;;;;5095231;28;20443;-59
2021/12/07 03:45:24;;;;;;;3.73;2.77;;;3.90;99.90;;;;;;5095424;28;20455;-58
2021/12/07 03:47:51;;;;;;;2.80;2.60;;;4.10;99.90;;;;;;5094923;28;20451;-58
2021/12/07 03:50:20;;;;;;;2.30;2.10;;;4.20;99.90;;;;;;5094942;28;21011;-57
2021/12/07 03:52:48;;;;;;;4.00;2.50;;;4.00;99.90;;;;;;5095342;28;20539;-58
2021/12/07 03:55:15;;;;;;;3.30;2.90;;;3.90;99.90;;;;;;5095300;28;20444;-56
2021/12/07 03:57:43;;;;;;;3.00;2.80;;;4.00;99.90;;;;;;5094898;28;20458;-58
2021/12/07 04:00:14;;;;;;;2.77;2.57;;;4.00;99.90;;;;;;5094871;28;20969;-58
2021/12/07 04:02:43;;;;;;;2.40;2.20;;;4.10;99.90;;;;;;5095694;28;20440;-58
2021/12/07 04:05:15;;;;;;;2.60;2.40;;;4.10;99.90;;;;;;5095169;28;20450;-58
2021/12/07 04:07:43;;;;;;;2.63;2.23;;;4.10;99.90;;;;;;5095183;28;20440;-58
2021/12/07 04:10:13;;;;;;;3.00;2.60;;;4.20;99.90;;;;;;5094657;28;20491;-58
2021/12/07 04:12:40;;;;;;;2.27;2.17;;;4.10;99.90;;;;;;5094192;28;20512;-58
2021/12/07 04:15:09;;;;;;;2.17;2.07;;;4.10;99.90;;;;;;5094983;28;20445;-58
2021/12/07 04:17:36;;;;;;;2.23;2.03;;;4.00;99.90;;;;;;5094563;28;20922;-56
2021/12/07 04:20:07;;;;;;;2.70;2.50;;;4.00;99.90;;;;;;5094553;28;20969;-58
2021/12/07 04:22:34;;;;;;;2.30;2.20;;;4.10;99.90;;;;;;5094915;28;20458;-58
2021/12/07 04:25:01;;;;;;;5.07;2.27;;;4.30;99.90;;;;;;5094573;28;21006;-58
2021/12/07 04:27:30;;;;;;;2.40;2.20;;;4.30;99.90;;;;;;5094449;28;20957;-58
2021/12/07 04:29:57;;;;;;;2.40;2.20;;;4.40;99.90;;;;;;5094318;28;20993;-58
2021/12/07 04:32:24;;;;;;;2.73;2.30;;;4.30;99.90;;;;;;5094618;28;20442;-58
2021/12/07 04:34:51;;;;;;;3.50;2.13;;;4.40;99.90;;;;;;5094634;28;20450;-59
2021/12/07 04:37:20;;;;;;;2.70;2.50;;;4.40;99.90;;;;;;5094572;28;20443;-59
2021/12/07 04:39:47;;;;;;;2.67;2.30;;;4.30;99.90;;;;;;5094488;28;20466;-58
2021/12/07 04:42:14;;;;;;;2.00;1.90;;;4.40;99.90;;;;;;5094722;28;20462;-57
2021/12/07 04:44:49;;;;;;;2.07;1.87;;;4.50;99.90;;;;;;5094448;28;20496;-56
2021/12/07 04:47:22;;;;;;;2.40;2.20;;;4.50;99.90;;;;;;5094276;28;20990;-58
2021/12/07 04:50:20;;;;;;;2.40;2.20;;;4.40;99.90;;;;;;5093791;28;20519;-58
2021/12/07 04:58:23;;;;;;;5.23;2.30;;;4.40;99.90;;;;;;5093858;28;20411;-56
2021/12/07 05:00:51;;;;;;;2.60;2.40;;;4.40;99.90;;;;;;5094081;28;20459;-59
2021/12/07 05:03:18;;;;;;;2.47;2.27;;;4.60;99.90;;;;;;5094002;28;20939;-59
2021/12/07 05:05:49;;;;;;;3.60;2.20;;;4.60;99.90;;;;;;5093736;28;20447;-59
2021/12/07 05:08:31;;;;;;;2.30;2.10;;;4.50;99.90;;;;;;5094004;28;20428;-58
2021/12/07 05:11:24;;;;;;;2.40;2.00;;;4.50;99.90;;;;;;5093893;28;20878;-59
2021/12/07 05:13:57;;;;;;;4.60;2.47;;;4.30;99.90;;;;;;5093924;28;20428;-58
2021/12/07 05:16:49;;;;;;;2.60;2.23;;;4.30;99.90;;;;;;5093958;28;20432;-58
2021/12/07 05:25:16;;;;;;;2.33;2.13;;;4.10;99.90;;;;;;5093743;28;20411;-58
2021/12/07 05:38:43;;;;;;;2.80;2.60;;;4.30;99.90;;;;;;5093514;28;20446;-56
2021/12/07 05:41:12;;;;;;;2.63;2.23;;;4.30;99.90;;;;;;5093279;28;20554;-58
2021/12/07 05:43:39;;;;;;;2.43;2.00;;;4.40;99.90;;;;;;5093148;28;20518;-58
2021/12/07 05:46:07;;;;;;;6.20;2.30;;;4.40;99.90;;;;;;5093115;28;20988;-58
2021/12/07 05:48:34;;;;;;;2.30;2.10;;;4.40;99.90;;;;;;5092763;28;20486;-58
2021/12/07 05:51:02;;;;;;;5.50;2.57;;;4.40;99.90;;;;;;5092726;28;20988;-58
2021/12/07 05:53:29;;;;;;;3.90;2.87;;;4.40;99.90;;;;;;5093241;28;20479;-58
2021/12/07 05:55:56;;;;;;;3.13;2.17;;;4.50;99.90;;;;;;5093262;28;20447;-58
2021/12/07 05:58:25;;;;;;;2.83;1.80;;;4.40;99.90;;;;;;5092899;28;20447;-58
2021/12/07 06:00:57;;;;;;;3.63;2.23;;;4.30;99.90;;;;;;5092823;28;20517;-58
2021/12/07 06:03:25;;;;;;;6.83;2.90;;;4.30;99.90;;;;;;5092825;28;20492;-58
2021/12/07 06:05:53;;;;;;;3.97;2.40;;;4.40;99.90;;;;;;5092907;28;20456;-57
2021/12/07 06:08:21;;;;;;;4.33;2.13;;;4.50;99.90;;;;;;5092909;28;20933;-58
2021/12/07 06:10:49;;;;;;;5.60;2.57;;;4.60;99.90;;;;;;5092701;28;20565;-58
2021/12/07 06:13:16;;;;;;;3.20;2.80;;;4.60;99.90;;;;;;5092876;28;20877;-56
2021/12/07 06:15:45;;;;;;;3.10;2.33;;;4.60;99.90;;;;;;5092801;28;20494;-56
2021/12/07 06:18:13;;;;;;;3.73;2.30;;;4.70;99.90;;;;;;5092861;28;20883;-58
2021/12/07 06:20:41;;;;;;;3.07;2.20;;;4.70;99.90;;;;;;5093035;28;20471;-57
2021/12/07 06:23:09;;;;;;;2.57;2.10;;;4.60;99.90;;;;;;5092546;28;20481;-56
2021/12/07 06:25:37;;;;;;;4.83;2.60;;;4.70;99.90;;;;;;5093235;28;20504;-57
2021/12/07 06:28:04;;;;;;;2.20;2.10;;;4.70;99.90;;;;;;5092983;28;20565;-56
2021/12/07 06:30:32;;;;;;;2.53;2.33;;;4.90;99.90;;;;;;5093471;28;20569;-56
2021/12/07 06:33:00;;;;;;;2.30;2.10;;;5.00;99.90;;;;;;5092725;28;20469;-57
2021/12/07 06:35:27;;;;;;;2.77;2.30;;;5.00;99.90;;;;;;5094043;28;20451;-57
2021/12/07 06:37:55;;;;;;;4.27;2.03;;;4.90;99.90;;;;;;5096698;28;20783;-57
2021/12/07 06:40:22;;;;;;;6.50;2.63;;;5.10;99.90;;;;;;5097306;28;20546;-57
2021/12/07 06:42:49;;;;;;;4.30;2.67;;;5.10;99.90;;;;;;5096593;28;20589;-57
2021/12/07 06:45:16;;;;;;;4.00;2.20;;;5.10;99.90;;;;;;5096290;28;20439;-56
2021/12/07 06:47:43;;;;;;;3.07;2.60;;;5.10;99.90;;;;;;5096337;28;20469;-57
2021/12/07 06:50:13;;;;;;;4.37;3.03;;;5.10;99.90;;;;;;5096269;28;20487;-57
2021/12/07 06:52:40;;;;;;;2.20;1.90;;;5.10;99.90;;;;;;5096029;28;20458;-57
2021/12/07 06:55:09;;;;;;;5.20;2.77;;;5.20;99.90;;;;;;5096528;28;20444;-59
2021/12/07 06:57:36;;;;;;;2.93;2.10;;;5.10;99.90;;;;;;5096398;28;20478;-58
2021/12/07 07:00:06;;;;;;;4.20;2.00;;;5.00;99.90;;;;;;5096247;28;20558;-59
2021/12/07 07:02:33;;;;;;;7.63;3.20;;;5.10;99.90;;;;;;5096501;28;20443;-57
2021/12/07 07:05:00;;;;;;;4.47;2.33;;;4.90;99.90;;;;;;5096174;28;20444;-57
2021/12/07 07:07:29;;;;;;;5.40;2.60;;;4.90;99.90;;;;;;5096897;28;20459;-57
2021/12/07 07:09:56;;;;;;;5.30;2.30;;;4.90;99.90;;;;;;5096055;28;20842;-57
2021/12/07 07:12:23;;;;;;;4.87;2.57;;;5.00;99.90;;;;;;5096338;28;20479;-57
2021/12/07 07:14:50;;;;;;;9.13;1.90;;;5.00;99.90;;;;;;5096092;28;20436;-57
2021/12/07 07:17:17;;;;;;;4.03;2.30;;;5.20;99.90;;;;;;5095580;28;20960;-57
2021/12/07 07:19:45;;;;;;;2.03;1.93;;;5.20;99.90;;;;;;5095708;28;20987;-57
2021/12/07 07:22:12;;;;;;;5.23;2.50;;;5.20;99.90;;;;;;5095547;28;20443;-57
2021/12/07 07:24:43;;;;;;;2.73;2.53;;;5.20;99.90;;;;;;5095843;28;20443;-58
2021/12/07 07:27:10;;;;;;;2.60;2.20;;;5.20;99.90;;;;;;5095877;28;20482;-58
2021/12/07 07:29:37;;;;;;;2.40;1.90;;;5.30;99.90;;;;;;5095521;28;20483;-58
2021/12/07 07:32:06;;;;;;;7.57;2.33;;;5.20;99.90;;;;;;5095709;28;20451;-58
2021/12/07 07:34:33;;;;;;;2.67;2.47;;;5.10;99.90;;;;;;5095468;28;20460;-58
2021/12/07 07:37:00;;;;;;;4.47;2.33;;;5.10;99.90;;;;;;5095206;28;20434;-58
2021/12/07 07:39:28;;;;;;;3.40;2.97;;;5.20;99.90;;;;;;5095721;28;20510;-58
2021/12/07 07:41:56;;;;;;;5.07;2.60;;;5.30;99.90;;;;;;5094879;28;20443;-58
2021/12/07 07:44:23;;;;;;;6.70;2.53;;;5.30;99.90;;;;;;5094903;28;20934;-57
2021/12/07 07:46:51;;;;;;;5.33;2.77;;;5.20;99.90;;;;;;5094806;28;20450;-58
2021/12/07 07:49:18;;;;;;;6.90;2.50;;;5.10;99.90;;;;;;5094683;28;20558;-58
2021/12/07 07:51:45;;;;;;;4.50;2.20;;;5.10;99.90;;;;;;5095176;28;20444;-58
2021/12/07 07:54:12;;;;;;;3.00;2.20;;;5.20;99.90;;;;;;5094780;28;20721;-57
2021/12/07 07:56:40;;;;;;;3.50;2.30;;;5.20;99.90;;;;;;5095256;28;20526;-59
2021/12/07 07:59:08;;;;;;;5.20;2.70;;;5.50;99.90;;;;;;5095048;28;20451;-58
2021/12/07 08:01:36;;;;;;;10.40;2.93;;;5.60;99.90;;;;;;5095087;28;20444;-58
2021/12/07 08:04:04;;;;;;;5.30;2.40;;;5.40;99.90;;;;;;5094851;28;20542;-58
2021/12/07 08:06:34;;;;;;;7.17;2.70;;;5.50;99.90;;;;;;5094864;28;20432;-58
2021/12/07 08:09:01;;;;;;;4.10;2.37;;;5.30;99.90;;;;;;5094829;28;20882;-58
2021/12/07 08:11:28;;;;;;;4.90;2.90;;;5.40;99.90;;;;;;5094535;28;20534;-58
2021/12/07 08:13:56;;;;;;;2.87;2.10;;;5.40;99.90;;;;;;5094610;28;20447;-58
2021/12/07 08:16:25;;;;;;;2.90;2.00;;;5.40;99.90;;;;;;5094527;28;20925;-57
2021/12/07 08:18:53;;;;;;;2.37;2.17;;;5.40;99.90;;;;;;5094428;28;20554;-57
2021/12/07 08:21:21;;;;;;;7.23;2.77;;;5.30;99.90;;;;;;5094589;28;20546;-57
2021/12/07 08:23:48;;;;;;;2.63;2.43;;;5.30;99.90;;;;;;5095206;28;20542;-58
2021/12/07 08:26:19;;;;;;;2.47;2.27;;;5.50;99.90;;;;;;5094531;28;20729;-58
2021/12/07 08:28:46;;;;;;;2.50;2.17;;;5.40;99.90;;;;;;5094217;28;20755;-58
2021/12/07 08:31:14;;;;;;;4.70;2.00;;;5.50;99.90;;;;;;5093936;28;20487;-58
2021/12/07 08:33:42;;;;;;;7.40;2.70;;;5.20;99.90;;;;;;5094275;28;20443;-57
2021/12/07 08:36:10;;;;;;;7.33;2.53;;;5.00;99.90;;;;;;5094234;28;20534;-58
2021/12/07 08:38:37;;;;;;;5.30;2.43;;;4.90;99.90;;;;;;5093920;28;21043;-57
2021/12/07 08:41:04;;;;;;;2.10;1.90;;;5.00;99.90;;;;;;5093957;28;20510;-57
2021/12/07 08:43:35;;;;;;;10.50;2.30;;;5.00;99.90;;;;;;5093699;28;20907;-58
2021/12/07 08:46:04;;;;;;;4.57;2.40;;;5.20;99.90;;;;;;5093881;28;20424;-58
2021/12/07 08:48:35;;;;;;;7.40;3.30;;;5.20;99.90;;;;;;5094112;28;20835;-58
2021/12/07 08:51:05;;;;;;;4.63;2.07;;;5.40;99.90;;;;;;5093865;28;20536;-58
2021/12/07 08:53:34;;;;;;;6.83;2.40;;;5.50;99.90;;;;;;5094312;28;20439;-57
2021/12/07 09:01:32;;;;;;;8.87;2.20;;;5.50;99.90;;;;;;5093912;28;20438;-57
2021/12/07 09:04:01;;;;;;;5.47;2.33;;;5.80;99.90;;;;;;5094075;28;20851;-58
2021/12/07 09:06:30;;;;;;;2.93;2.10;;;5.80;99.90;;;;;;5093788;28;20458;-58
2021/12/07 09:08:58;;;;;;;4.97;2.47;;;5.90;99.90;;;;;;5094022;28;20474;-58
2021/12/07 09:11:26;;;;;;;3.30;2.40;;;6.00;99.90;;;;;;5093219;28;20491;-57
2021/12/07 09:13:53;;;;;;;10.63;2.40;;;6.10;99.90;;;;;;5094236;28;20434;-58
2021/12/07 09:16:22;;;;;;;3.97;2.30;;;6.00;99.90;;;;;;5093845;28;20534;-58
2021/12/07 09:18:50;;;;;;;7.10;2.60;;;5.90;99.90;;;;;;5093498;28;20460;-57
2021/12/07 09:21:18;;;;;;;5.07;2.90;;;6.00;99.90;;;;;;5093663;28;20463;-56
2021/12/07 09:23:48;;;;;;;5.40;2.60;;;6.10;99.90;;;;;;5093615;28;20505;-56
2021/12/07 09:26:16;;;;;;;11.97;2.60;;;6.20;99.90;;;;;;5093715;28;20854;-59
2021/12/07 09:28:45;;;;;;;4.50;2.80;;;6.40;99.90;;;;;;5093642;28;20766;-56
2021/12/07 09:31:13;;;;;;;5.47;2.17;;;6.30;99.90;;;;;;5093034;28;20977;-57
2021/12/07 09:33:42;;;;;;;3.40;2.10;;;6.30;99.90;;;;;;5093187;28;20444;-57
2021/12/07 09:36:11;;;;;;;4.73;2.07;;;6.20;99.90;;;;;;5094018;28;20471;-58
2021/12/07 09:38:40;;;;;;;5.03;2.10;;;6.20;99.90;;;;;;5093571;28;20440;-57
2021/12/07 09:41:11;;;;;;;3.20;2.10;;;6.20;99.90;;;;;;5093306;28;20606;-57
2021/12/07 09:43:39;;;;;;;3.90;2.30;;;6.20;99.90;;;;;;5093285;28;20453;-58
2021/12/07 09:46:07;;;;;;;5.83;2.13;;;6.00;99.90;;;;;;5093074;28;20992;-57
2021/12/07 09:48:34;;;;;;;8.93;2.87;;;5.90;99.90;;;;;;5092687;28;20558;-57
2021/12/07 09:51:03;;;;;;;3.70;2.23;;;5.90;99.90;;;;;;5093183;28;20486;-57
2021/12/07 09:53:30;;;;;;;6.43;2.53;;;5.90;99.90;;;;;;5092927;28;20451;-57
2021/12/07 09:56:00;;;;;;;4.33;2.10;;;5.90;99.90;;;;;;5093182;28;20443;-57
2021/12/07 09:58:29;;;;;;;3.03;2.30;;;6.10;99.90;;;;;;5093039;28;20498;-57
2021/12/07 10:00:57;;;;;;;2.07;1.87;;;6.20;99.90;;;;;;5092926;28;20495;-57
2021/12/07 10:03:24;;;;;;;4.40;2.30;;;6.40;99.90;;;;;;5093040;28;20494;-57
2021/12/07 10:05:52;;;;;;;3.50;1.97;;;6.50;99.90;;;;;;5093202;28;20620;-57
2021/12/07 10:08:20;;;;;;;10.60;3.60;;;6.50;99.90;;;;;;5092937;28;20436;-57
2021/12/07 10:10:54;;;;;;;3.33;1.90;;;6.30;99.90;;;;;;5094667;28;20636;-58
2021/12/07 10:13:22;;;;;;;6.43;2.10;;;6.40;99.90;;;;;;5097085;28;20454;-57
2021/12/07 10:15:53;;;;;;;3.77;2.50;;;6.40;99.90;;;;;;5096689;28;20458;-57
2021/12/07 10:18:24;;;;;;;3.27;1.87;;;6.10;99.90;;;;;;5096936;28;20459;-56
2021/12/07 10:20:54;;;;;;;4.70;2.47;;;6.00;99.90;;;;;;5096634;28;20558;-57
2021/12/07 10:23:29;;;;;;;3.93;2.30;;;5.90;99.90;;;;;;5096516;28;20943;-57
2021/12/07 10:25:58;;;;;;;3.07;2.20;;;6.10;99.90;;;;;;5096794;28;20481;-57
2021/12/07 10:28:28;;;;;;;5.40;2.50;;;6.10;99.90;;;;;;5096711;28;20454;-57
2021/12/07 10:30:57;;;;;;;5.80;1.97;;;6.40;99.90;;;;;;5096541;28;20551;-57
2021/12/07 10:33:32;;;;;;;3.87;2.20;;;7.00;99.90;;;;;;5096876;28;20424;-58
2021/12/07 10:36:10;;;;;;;6.60;2.27;;;7.60;99.90;;;;;;5096228;28;20538;-57
2021/12/07 10:38:38;;;;;;;3.20;2.17;;;7.80;99.90;;;;;;5096161;28;20443;-57
2021/12/07 10:41:07;;;;;;;4.97;2.23;;;7.50;99.90;;;;;;5095856;28;20481;-57
2021/12/07 10:43:42;;;;;;;2.80;2.10;;;7.30;99.90;;;;;;5096171;28;20885;-57
2021/12/07 10:46:25;;;;;;;4.23;1.97;;;;;;;;;;5096158;28;20454;-57
2021/12/07 10:49:22;;;;;;;4.80;2.20;;;8.70;99.90;;;;;;5095870;28;20481;-57
2021/12/07 10:52:11;;;;;;;4.90;2.00;;;9.10;99.90;;;;;;5093761;28;20917;-58
2021/12/07 10:54:41;;;;;;;3.73;1.63;;;9.70;99.90;;;;;;5096128;28;20443;-58
2021/12/07 10:57:11;;;;;;;2.27;2.03;;;10.10;99.90;;;;;;5096137;28;20523;-58
2021/12/07 10:59:38;;;;;;;3.63;1.90;;;9.90;98.70;;;;;;5096075;28;20459;-58
2021/12/07 11:02:15;;;;;;;7.23;1.93;;;10.80;98.70;;;;;;5095873;28;20534;-58
2021/12/07 11:04:44;;;;;;;7.53;2.40;;;;;;;;;;5096007;28;20453;-58
2021/12/07 11:07:17;;;;;;;5.57;2.00;;;12.00;94.10;;;;;;5095609;28;20512;-58
2021/12/07 11:09:51;;;;;;;3.00;1.60;;;12.70;93.60;;;;;;5095528;28;20474;-58
2021/12/07 11:12:20;;;;;;;4.67;1.83;;;12.50;94.40;;;;;;5095392;28;20487;-58
2021/12/07 11:14:51;;;;;;;5.07;2.00;;;12.50;91.70;;;;;;5095557;28;20443;-58
2021/12/07 11:17:20;;;;;;;3.67;1.80;;;12.00;91.00;;;;;;5095733;28;20502;-57
2021/12/07 11:19:49;;;;;;;5.83;2.10;;;10.30;92.10;;;;;;5095404;28;20468;-58
2021/12/07 11:22:19;;;;;;;5.70;1.93;;;9.90;93.60;;;;;;5094918;28;20443;-58
2021/12/07 11:24:48;;;;;;;3.37;2.50;;;9.40;93.30;;;;;;5095520;28;20419;-58
2021/12/07 11:30:10;;;;;;;6.63;2.30;;;8.40;94.20;;;;;;5095645;28;20541;-58
2021/12/07 11:32:37;;;;;;;3.27;2.20;;;7.90;96.30;;;;;;5095249;28;20553;-57
2021/12/07 11:35:13;;;;;;;2.97;2.67;;;7.40;97.00;;;;;;5095437;28;20435;-57
2021/12/07 11:37:41;;;;;;;3.00;2.10;;;7.40;97.00;;;;;;5094807;28;20894;-60
2021/12/07 11:40:10;;;;;;;4.57;2.37;;;7.70;96.50;;;;;;5095041;28;20972;-58
2021/12/07 11:42:41;;;;;;;4.23;1.63;;;7.90;95.90;;;;;;5095132;28;20451;-57
2021/12/07 11:45:12;;;;;;;3.13;1.53;;;7.90;96.20;;;;;;5094993;28;20432;-57
2021/12/07 11:47:42;;;;;;;2.23;2.03;;;7.80;95.40;;;;;;5095017;28;20424;-58
2021/12/07 11:50:21;;;;;;;7.33;2.47;;;8.00;95.80;;;;;;5094869;28;20460;-57
2021/12/07 11:52:52;;;;;;;1.67;1.57;;;8.20;96.00;;;;;;5095007;28;20475;-57
2021/12/07 11:55:20;;;;;;;3.00;2.17;;;8.20;95.60;;;;;;5095079;28;20432;-57
2021/12/07 11:57:48;;;;;;;7.83;2.40;;;8.30;95.50;;;;;;5095102;28;20530;-57
2021/12/07 12:00:19;;;;;;;1.93;1.60;;;8.20;94.80;;;;;;5094951;28;20468;-57
2021/12/07 12:02:46;;;;;;;4.17;2.17;;;8.20;95.50;;;;;;5094741;28;20455;-58
2021/12/07 12:05:14;;;;;;;3.20;2.00;;;7.80;95.70;;;;;;5095771;28;20443;-57
2021/12/07 12:07:45;;;;;;;4.67;2.47;;;7.70;96.20;;;;;;5094662;28;20960;-57
2021/12/07 12:10:14;;;;;;;6.03;2.30;;;7.80;97.10;;;;;;5094949;28;20467;-57
2021/12/07 12:13:07;;;;;;;3.07;2.00;;;7.90;97.40;;;;;;5094175;28;20479;-57
2021/12/07 12:16:04;;;;;;;6.53;2.77;;;8.00;97.10;;;;;;5094923;28;20899;-59
2021/12/07 12:18:48;;;;;;;10.10;2.40;;;7.90;98.10;;;;;;5089597;28;20455;-57
2021/12/07 12:21:27;;;;;;;3.57;2.07;;;8.20;97.60;;;;;;5093903;28;20462;-57
2021/12/07 12:24:06;;;;;;;4.47;2.20;;;8.50;96.90;;;;;;5093789;28;20458;-57
2021/12/07 12:26:35;;;;;;;3.13;1.83;;;8.30;96.50;;;;;;5093606;28;20419;-58
2021/12/07 12:29:02;;;;;;;4.40;2.07;;;7.80;97.00;;;;;;5094258;28;20447;-59
2021/12/07 12:31:51;;;;;;;2.60;1.93;;;8.10;98.10;;;;;;5093803;28;20950;-57
2021/12/07 12:34:21;;;;;;;2.70;2.07;;;8.30;96.80;;;;;;5093586;28;20458;-59
2021/12/07 12:37:07;;;;;;;5.53;2.20;;;8.80;96.30;;;;;;5094708;28;20960;-59
2021/12/07 12:39:49;;;;;;;11.70;2.53;;;8.80;96.40;;;;;;5094304;28;20842;-58
2021/12/07 12:42:19;;;;;;;2.40;2.07;;;8.80;96.00;;;;;;5093599;28;20443;-58
2021/12/07 12:44:46;;;;;;;4.43;2.20;;;8.30;96.10;;;;;;5093739;28;20428;-58
2021/12/07 12:47:13;;;;;;;2.87;2.60;;;8.30;97.60;;;;;;5093925;28;20500;-58
2021/12/07 12:49:42;;;;;;;5.57;2.10;;;8.50;95.90;;;;;;5093512;28;20489;-57
2021/12/07 12:52:11;;;;;;;3.30;2.10;;;8.30;96.50;;;;;;5093689;28;20509;-58
2021/12/07 12:54:49;;;;;;;4.13;2.40;;;8.20;96.30;;;;;;5094057;28;20450;-58
2021/12/07 12:57:17;;;;;;;4.53;1.70;;;8.10;95.00;;;;;;5093612;28;20478;-58
2021/12/07 12:59:47;;;;;;;5.03;1.97;;;8.10;95.50;;;;;;5093680;28;20464;-58
2021/12/07 13:02:18;;;;;;;6.93;2.77;;;8.00;96.00;;;;;;5093296;28;20817;-58
2021/12/07 13:05:04;;;;;;;4.67;2.03;;;8.10;95.00;;;;;;5093422;28;20507;-58
2021/12/07 13:07:31;;;;;;;3.10;2.33;;;8.00;95.10;;;;;;5093810;28;20507;-58
2021/12/07 13:10:01;;;;;;;5.07;3.50;;;8.10;94.80;;;;;;5093589;28;20475;-58
2021/12/07 13:12:33;;;;;;;8.40;2.50;;;8.00;94.50;;;;;;5093234;28;20483;-57
2021/12/07 13:15:03;;;;;;;2.20;2.00;;;8.00;94.10;;;;;;5093534;28;20523;-58
2021/12/07 13:17:41;;;;;;;3.60;2.20;;;7.90;94.30;;;;;;5093294;28;20952;-58
2021/12/07 13:20:29;;;;;;;2.20;2.00;;;8.00;94.70;;;;;;5094272;28;20495;-58
2021/12/07 13:23:14;;;;;;;3.57;1.90;;;7.80;94.40;;;;;;5093045;28;20477;-57
2021/12/07 13:25:45;;;;;;;2.10;1.90;;;7.60;95.00;;;;;;5093162;28;20499;-57
2021/12/07 13:28:24;;;;;;;2.70;2.10;;;7.60;95.00;;;;;;5093622;28;20474;-58
2021/12/07 13:30:55;;;;;;;1.80;1.70;;;7.70;95.30;;;;;;5092998;28;20878;-58
2021/12/07 13:33:30;;;;;;;3.27;2.97;;;7.80;95.20;;;;;;5093207;28;20979;-58
2021/12/07 13:35:57;;;;;;;3.13;1.90;;;7.70;95.40;;;;;;5093320;28;20408;-58
2021/12/07 13:38:28;;;;;;;4.47;2.03;;;7.40;95.90;;;;;;5093301;28;20530;-58
2021/12/07 13:41:22;;;;;;;4.60;2.03;;;7.30;96.00;;;;;;5093136;28;20563;-57
2021/12/07 13:43:52;;;;;;;2.33;1.83;;;7.30;96.50;;;;;;5092869;28;20507;-58
2021/12/07 13:46:20;;;;;;;4.93;2.17;;;7.20;96.10;;;;;;5093799;28;20455;-57
2021/12/07 13:48:50;;;;;;;7.47;1.73;;;7.20;96.60;;;;;;5093127;28;20820;-58
2021/12/07 13:51:19;;;;;;;6.43;2.57;;;7.10;96.80;;;;;;5092722;28;20966;-58
2021/12/07 13:53:48;;;;;;;6.30;2.60;;;7.00;96.60;;;;;;5093182;28;20526;-58
2021/12/07 13:56:17;;;;;;;2.60;2.27;;;7.10;97.30;;;;;;5093013;28;20444;-58
2021/12/07 13:58:54;;;;;;;2.30;2.10;;;7.10;97.10;;;;;;5093197;28;20484;-58
2021/12/07 14:01:22;;;;;;;7.43;2.93;;;7.30;97.30;;;;;;5092889;28;20497;-57
2021/12/07 14:03:50;;;;;;;2.77;1.97;;;7.30;97.20;;;;;;5092726;28;20557;-57
2021/12/07 14:06:17;;;;;;;5.33;2.10;;;7.20;97.10;;;;;;5092679;28;21022;-57
2021/12/07 14:08:45;;;;;;;3.33;1.83;;;7.10;97.50;;;;;;5092728;28;20428;-58
2021/12/07 14:11:14;;;;;;;3.10;2.27;;;6.90;97.20;;;;;;5092445;28;20459;-58
2021/12/07 14:13:45;;;;;;;7.77;2.27;;;6.80;97.40;;;;;;5092512;28;20456;-58
2021/12/07 14:16:14;;;;;;;2.30;1.90;;;6.80;97.40;;;;;;5093258;28;20439;-57
2021/12/07 14:18:43;;;;;;;5.87;2.00;;;6.70;97.60;;;;;;5092723;28;20448;-58
2021/12/07 14:21:11;;;;;;;9.40;2.43;;;6.70;97.60;;;;;;5092870;28;20673;-58
2021/12/07 14:23:40;;;;;;;6.73;3.17;;;6.80;97.80;;;;;;5092512;28;20522;-58
2021/12/07 14:26:09;;;;;;;3.53;2.30;;;6.70;98.00;;;;;;5092795;28;20447;-58
2021/12/07 14:28:39;;;;;;;4.17;2.10;;;6.70;98.30;;;;;;5092567;28;20486;-57
2021/12/07 14:31:12;;;;;;;4.83;2.47;;;6.80;97.80;;;;;;5092415;28;20467;-58
2021/12/07 14:33:45;;;;;;;1.83;1.67;;;6.70;97.80;;;;;;5092125;28;20463;-58